sensor_id;sensor_type;location;lat;lon;timestamp;pressure;altitude;pressure_sealevel;temperature;humidity
17521;BME280;8878;-33.370;-70.552;2022-10-16T00:01:53;92294.91;;;25.10;27.21
17521;BME280;8878;-33.370;-70.552;2022-10-16T00:04:24;92293.72;;;25.07;27.56
17521;BME280;8878;-33.370;-70.552;2022-10-16T00:06:53;92300.88;;;25.00;28.16
17521;BME280;8878;-33.370;-70.552;2022-10-16T00:09:23;92308.34;;;24.75;28.95
17521;BME280;8878;-33.370;-70.552;2022-10-16T00:11:52;92306.59;;;24.67;28.75
17521;BME280;8878;-33.370;-70.552;2022-10-16T00:14:21;92307.47;;;24.55;28.36
17521;BME280;8878;-33.370;-70.552;2022-10-16T00:16:51;92314.16;;;24.61;28.38
17521;BME280;8878;-33.370;-70.552;2022-10-16T00:19:20;92309.72;;;24.53;27.51
17521;BME280;8878;-33.370;-70.552;2022-10-16T00:21:52;92316.09;;;24.61;27.83
17521;BME280;8878;-33.370;-70.552;2022-10-16T00:24:21;92313.03;;;24.46;28.25
17521;BME280;8878;-33.370;-70.552;2022-10-16T00:26:50;92310.50;;;24.38;28.86
17521;BME280;8878;-33.370;-70.552;2022-10-16T00:29:20;92315.22;;;24.13;29.52
17521;BME280;8878;-33.370;-70.552;2022-10-16T00:31:49;92323.19;;;24.09;29.87
17521;BME280;8878;-33.370;-70.552;2022-10-16T00:34:18;92321.03;;;23.99;29.87
17521;BME280;8878;-33.370;-70.552;2022-10-16T00:36:47;92313.59;;;23.96;29.82
17521;BME280;8878;-33.370;-70.552;2022-10-16T00:39:18;92316.75;;;23.98;29.88
17521;BME280;8878;-33.370;-70.552;2022-10-16T00:41:48;92314.50;;;24.00;29.61
17521;BME280;8878;-33.370;-70.552;2022-10-16T00:44:45;92320.38;;;23.90;29.94
17521;BME280;8878;-33.370;-70.552;2022-10-16T00:47:21;92314.78;;;23.83;29.41
17521;BME280;8878;-33.370;-70.552;2022-10-16T00:49:53;92318.47;;;23.63;29.86
17521;BME280;8878;-33.370;-70.552;2022-10-16T00:52:25;92323.94;;;23.66;29.70
17521;BME280;8878;-33.370;-70.552;2022-10-16T00:54:57;92321.41;;;23.58;29.73
17521;BME280;8878;-33.370;-70.552;2022-10-16T00:57:27;92325.31;;;23.60;29.02
17521;BME280;8878;-33.370;-70.552;2022-10-16T00:59:57;92321.03;;;23.59;30.35
17521;BME280;8878;-33.370;-70.552;2022-10-16T01:02:27;92320.16;;;23.55;30.29
17521;BME280;8878;-33.370;-70.552;2022-10-16T01:04:56;92320.13;;;23.67;29.74
17521;BME280;8878;-33.370;-70.552;2022-10-16T01:07:36;92321.81;;;23.60;30.25
17521;BME280;8878;-33.370;-70.552;2022-10-16T01:10:17;92322.53;;;23.57;31.08
17521;BME280;8878;-33.370;-70.552;2022-10-16T01:12:52;92318.06;;;23.36;31.35
17521;BME280;8878;-33.370;-70.552;2022-10-16T01:15:26;92324.91;;;23.34;31.92
17521;BME280;8878;-33.370;-70.552;2022-10-16T01:18:00;92331.31;;;23.17;32.18
17521;BME280;8878;-33.370;-70.552;2022-10-16T01:20:33;92317.84;;;23.29;32.31
17521;BME280;8878;-33.370;-70.552;2022-10-16T01:23:16;92325.34;;;23.36;32.75
17521;BME280;8878;-33.370;-70.552;2022-10-16T01:26:02;92321.66;;;23.28;32.47
17521;BME280;8878;-33.370;-70.552;2022-10-16T01:28:41;92326.06;;;22.96;32.11
17521;BME280;8878;-33.370;-70.552;2022-10-16T01:31:17;92330.78;;;22.87;32.41
17521;BME280;8878;-33.370;-70.552;2022-10-16T01:33:53;92321.16;;;22.86;32.70
17521;BME280;8878;-33.370;-70.552;2022-10-16T01:36:28;92327.31;;;22.87;33.04
17521;BME280;8878;-33.370;-70.552;2022-10-16T01:39:02;92320.34;;;22.86;33.79
17521;BME280;8878;-33.370;-70.552;2022-10-16T01:41:33;92321.34;;;22.81;34.15
17521;BME280;8878;-33.370;-70.552;2022-10-16T01:44:10;92321.13;;;22.74;34.00
17521;BME280;8878;-33.370;-70.552;2022-10-16T01:46:42;92318.31;;;22.71;34.19
17521;BME280;8878;-33.370;-70.552;2022-10-16T01:49:13;92318.06;;;22.63;33.68
17521;BME280;8878;-33.370;-70.552;2022-10-16T01:51:45;92311.78;;;22.59;33.82
17521;BME280;8878;-33.370;-70.552;2022-10-16T01:54:16;92325.13;;;22.68;33.10
17521;BME280;8878;-33.370;-70.552;2022-10-16T01:56:51;92314.94;;;22.61;33.97
17521;BME280;8878;-33.370;-70.552;2022-10-16T01:59:24;92319.16;;;22.38;32.68
17521;BME280;8878;-33.370;-70.552;2022-10-16T02:01:57;92321.91;;;22.17;32.86
17521;BME280;8878;-33.370;-70.552;2022-10-16T02:04:33;92321.59;;;22.31;32.18
17521;BME280;8878;-33.370;-70.552;2022-10-16T02:07:03;92317.47;;;22.34;34.71
17521;BME280;8878;-33.370;-70.552;2022-10-16T02:09:33;92329.00;;;22.34;34.73
17521;BME280;8878;-33.370;-70.552;2022-10-16T02:12:08;92325.59;;;22.13;35.65
17521;BME280;8878;-33.370;-70.552;2022-10-16T02:14:41;92322.28;;;22.28;35.28
17521;BME280;8878;-33.370;-70.552;2022-10-16T02:17:15;92326.09;;;22.27;35.10
17521;BME280;8878;-33.370;-70.552;2022-10-16T02:19:46;92323.72;;;22.25;34.66
17521;BME280;8878;-33.370;-70.552;2022-10-16T02:22:20;92320.38;;;22.16;34.23
17521;BME280;8878;-33.370;-70.552;2022-10-16T02:24:53;92326.97;;;22.19;34.03
17521;BME280;8878;-33.370;-70.552;2022-10-16T02:27:26;92316.28;;;22.10;34.50
17521;BME280;8878;-33.370;-70.552;2022-10-16T02:30:02;92323.06;;;21.96;35.27
17521;BME280;8878;-33.370;-70.552;2022-10-16T02:32:38;92320.38;;;21.96;35.71
17521;BME280;8878;-33.370;-70.552;2022-10-16T02:35:09;92329.75;;;21.89;34.97
17521;BME280;8878;-33.370;-70.552;2022-10-16T02:37:39;92326.16;;;21.85;35.60
17521;BME280;8878;-33.370;-70.552;2022-10-16T02:40:10;92332.06;;;21.79;36.36
17521;BME280;8878;-33.370;-70.552;2022-10-16T02:42:41;92328.81;;;21.73;37.01
17521;BME280;8878;-33.370;-70.552;2022-10-16T02:45:12;92323.63;;;21.68;37.00
17521;BME280;8878;-33.370;-70.552;2022-10-16T02:47:41;92324.56;;;21.72;36.80
17521;BME280;8878;-33.370;-70.552;2022-10-16T02:50:11;92328.34;;;21.71;37.36
17521;BME280;8878;-33.370;-70.552;2022-10-16T02:52:40;92322.06;;;21.67;36.83
17521;BME280;8878;-33.370;-70.552;2022-10-16T02:55:10;92324.16;;;21.62;36.32
17521;BME280;8878;-33.370;-70.552;2022-10-16T02:57:39;92331.16;;;21.54;36.34
17521;BME280;8878;-33.370;-70.552;2022-10-16T03:00:16;92323.06;;;21.42;37.77
17521;BME280;8878;-33.370;-70.552;2022-10-16T03:02:46;92322.84;;;21.47;37.90
17521;BME280;8878;-33.370;-70.552;2022-10-16T03:05:15;92319.53;;;21.50;37.94
17521;BME280;8878;-33.370;-70.552;2022-10-16T03:07:45;92321.09;;;21.51;37.52
17521;BME280;8878;-33.370;-70.552;2022-10-16T03:10:14;92325.22;;;21.48;38.03
17521;BME280;8878;-33.370;-70.552;2022-10-16T03:12:44;92320.38;;;21.42;37.63
17521;BME280;8878;-33.370;-70.552;2022-10-16T03:15:15;92319.72;;;21.45;37.64
17521;BME280;8878;-33.370;-70.552;2022-10-16T03:17:44;92316.69;;;21.46;38.01
17521;BME280;8878;-33.370;-70.552;2022-10-16T03:20:13;92306.31;;;21.45;38.07
17521;BME280;8878;-33.370;-70.552;2022-10-16T03:22:43;92307.47;;;21.35;38.18
17521;BME280;8878;-33.370;-70.552;2022-10-16T03:25:12;92305.91;;;21.34;37.82
17521;BME280;8878;-33.370;-70.552;2022-10-16T03:27:42;92301.72;;;21.25;38.01
17521;BME280;8878;-33.370;-70.552;2022-10-16T03:30:13;92305.25;;;21.17;39.17
17521;BME280;8878;-33.370;-70.552;2022-10-16T03:32:44;92296.44;;;21.16;38.81
17521;BME280;8878;-33.370;-70.552;2022-10-16T03:35:13;92297.75;;;21.01;39.13
17521;BME280;8878;-33.370;-70.552;2022-10-16T03:37:43;92303.72;;;21.07;39.25
17521;BME280;8878;-33.370;-70.552;2022-10-16T03:40:12;92301.22;;;21.02;38.92
17521;BME280;8878;-33.370;-70.552;2022-10-16T03:42:43;92302.19;;;20.97;40.02
17521;BME280;8878;-33.370;-70.552;2022-10-16T03:45:14;92298.41;;;20.98;40.26
17521;BME280;8878;-33.370;-70.552;2022-10-16T03:47:44;92287.00;;;20.81;41.49
17521;BME280;8878;-33.370;-70.552;2022-10-16T03:50:14;92293.53;;;20.71;40.52
17521;BME280;8878;-33.370;-70.552;2022-10-16T03:52:43;92287.31;;;20.79;39.59
17521;BME280;8878;-33.370;-70.552;2022-10-16T03:55:12;92288.91;;;20.80;38.77
17521;BME280;8878;-33.370;-70.552;2022-10-16T03:57:42;92289.84;;;20.76;40.08
17521;BME280;8878;-33.370;-70.552;2022-10-16T04:00:14;92284.16;;;20.77;40.19
17521;BME280;8878;-33.370;-70.552;2022-10-16T04:02:43;92279.91;;;20.76;39.64
17521;BME280;8878;-33.370;-70.552;2022-10-16T04:05:12;92274.16;;;20.65;39.70
17521;BME280;8878;-33.370;-70.552;2022-10-16T04:07:43;92276.31;;;20.43;39.34
17521;BME280;8878;-33.370;-70.552;2022-10-16T04:10:12;92280.38;;;20.49;38.68
17521;BME280;8878;-33.370;-70.552;2022-10-16T04:12:41;92276.94;;;20.40;38.77
17521;BME280;8878;-33.370;-70.552;2022-10-16T04:15:11;92274.31;;;20.31;38.09
17521;BME280;8878;-33.370;-70.552;2022-10-16T04:17:42;92269.38;;;20.42;38.46
17521;BME280;8878;-33.370;-70.552;2022-10-16T04:20:11;92265.59;;;20.43;39.17
17521;BME280;8878;-33.370;-70.552;2022-10-16T04:22:40;92262.13;;;20.42;40.25
17521;BME280;8878;-33.370;-70.552;2022-10-16T04:25:10;92269.28;;;20.21;40.40
17521;BME280;8878;-33.370;-70.552;2022-10-16T04:27:40;92264.53;;;20.26;40.14
17521;BME280;8878;-33.370;-70.552;2022-10-16T04:30:10;92273.50;;;20.30;40.40
17521;BME280;8878;-33.370;-70.552;2022-10-16T04:32:41;92270.03;;;20.39;39.39
17521;BME280;8878;-33.370;-70.552;2022-10-16T04:35:10;92271.75;;;20.43;39.29
17521;BME280;8878;-33.370;-70.552;2022-10-16T04:37:39;92273.75;;;20.46;40.14
17521;BME280;8878;-33.370;-70.552;2022-10-16T04:40:09;92268.47;;;20.38;40.23
17521;BME280;8878;-33.370;-70.552;2022-10-16T04:42:39;92271.63;;;20.31;39.69
17521;BME280;8878;-33.370;-70.552;2022-10-16T04:45:09;92270.22;;;20.33;40.25
17521;BME280;8878;-33.370;-70.552;2022-10-16T04:47:38;92260.09;;;20.39;40.19
17521;BME280;8878;-33.370;-70.552;2022-10-16T04:50:09;92260.16;;;20.22;40.37
17521;BME280;8878;-33.370;-70.552;2022-10-16T04:52:39;92257.50;;;20.13;41.21
17521;BME280;8878;-33.370;-70.552;2022-10-16T04:55:08;92260.19;;;20.13;40.96
17521;BME280;8878;-33.370;-70.552;2022-10-16T04:57:38;92263.34;;;20.07;40.70
17521;BME280;8878;-33.370;-70.552;2022-10-16T05:00:08;92263.22;;;20.03;40.49
17521;BME280;8878;-33.370;-70.552;2022-10-16T05:02:37;92261.50;;;19.99;40.45
17521;BME280;8878;-33.370;-70.552;2022-10-16T05:05:09;92257.28;;;19.89;40.65
17521;BME280;8878;-33.370;-70.552;2022-10-16T05:07:38;92255.91;;;19.74;40.36
17521;BME280;8878;-33.370;-70.552;2022-10-16T05:10:08;92266.41;;;19.88;40.10
17521;BME280;8878;-33.370;-70.552;2022-10-16T05:12:37;92270.69;;;19.89;40.46
17521;BME280;8878;-33.370;-70.552;2022-10-16T05:15:08;92259.00;;;19.85;41.31
17521;BME280;8878;-33.370;-70.552;2022-10-16T05:17:37;92263.59;;;19.76;42.07
17521;BME280;8878;-33.370;-70.552;2022-10-16T05:20:09;92258.88;;;19.81;41.13
17521;BME280;8878;-33.370;-70.552;2022-10-16T05:22:39;92262.03;;;19.75;41.61
17521;BME280;8878;-33.370;-70.552;2022-10-16T05:25:08;92263.88;;;19.83;41.42
17521;BME280;8878;-33.370;-70.552;2022-10-16T05:27:37;92256.50;;;19.80;41.81
17521;BME280;8878;-33.370;-70.552;2022-10-16T05:30:08;92265.34;;;19.80;41.38
17521;BME280;8878;-33.370;-70.552;2022-10-16T05:32:37;92257.63;;;19.79;40.82
17521;BME280;8878;-33.370;-70.552;2022-10-16T05:35:08;92247.22;;;19.77;40.21
17521;BME280;8878;-33.370;-70.552;2022-10-16T05:37:38;92247.72;;;19.62;41.02
17521;BME280;8878;-33.370;-70.552;2022-10-16T05:40:08;92253.53;;;19.73;41.32
17521;BME280;8878;-33.370;-70.552;2022-10-16T05:42:38;92238.91;;;19.70;41.43
17521;BME280;8878;-33.370;-70.552;2022-10-16T05:45:08;92233.56;;;19.62;41.23
17521;BME280;8878;-33.370;-70.552;2022-10-16T05:47:38;92238.75;;;19.67;41.26
17521;BME280;8878;-33.370;-70.552;2022-10-16T05:50:10;92232.13;;;19.64;42.09
17521;BME280;8878;-33.370;-70.552;2022-10-16T05:52:39;92232.16;;;19.55;41.52
17521;BME280;8878;-33.370;-70.552;2022-10-16T05:55:09;92229.66;;;19.50;41.36
17521;BME280;8878;-33.370;-70.552;2022-10-16T05:57:38;92220.19;;;19.44;41.90
17521;BME280;8878;-33.370;-70.552;2022-10-16T06:00:09;92210.44;;;19.40;41.89
17521;BME280;8878;-33.370;-70.552;2022-10-16T06:02:39;92208.72;;;19.52;41.39
17521;BME280;8878;-33.370;-70.552;2022-10-16T06:05:10;92211.69;;;19.42;40.84
17521;BME280;8878;-33.370;-70.552;2022-10-16T06:07:39;92213.47;;;19.12;40.80
17521;BME280;8878;-33.370;-70.552;2022-10-16T06:10:09;92206.09;;;19.18;40.89
17521;BME280;8878;-33.370;-70.552;2022-10-16T06:12:38;92206.22;;;19.04;41.05
17521;BME280;8878;-33.370;-70.552;2022-10-16T06:15:08;92205.31;;;19.00;41.12
17521;BME280;8878;-33.370;-70.552;2022-10-16T06:17:37;92193.03;;;19.08;40.97
17521;BME280;8878;-33.370;-70.552;2022-10-16T06:20:09;92197.88;;;19.23;41.22
17521;BME280;8878;-33.370;-70.552;2022-10-16T06:22:38;92194.25;;;19.28;41.26
17521;BME280;8878;-33.370;-70.552;2022-10-16T06:25:08;92189.56;;;19.25;41.49
17521;BME280;8878;-33.370;-70.552;2022-10-16T06:27:39;92188.00;;;19.15;42.42
17521;BME280;8878;-33.370;-70.552;2022-10-16T06:30:10;92185.66;;;18.96;42.00
17521;BME280;8878;-33.370;-70.552;2022-10-16T06:32:39;92186.59;;;19.09;43.37
17521;BME280;8878;-33.370;-70.552;2022-10-16T06:35:11;92185.78;;;19.08;42.90
17521;BME280;8878;-33.370;-70.552;2022-10-16T06:37:40;92183.75;;;18.80;43.65
17521;BME280;8878;-33.370;-70.552;2022-10-16T06:40:10;92179.03;;;18.94;43.29
17521;BME280;8878;-33.370;-70.552;2022-10-16T06:42:41;92178.41;;;18.97;43.30
17521;BME280;8878;-33.370;-70.552;2022-10-16T06:45:11;92172.75;;;18.90;43.33
17521;BME280;8878;-33.370;-70.552;2022-10-16T06:47:41;92172.91;;;18.85;43.79
17521;BME280;8878;-33.370;-70.552;2022-10-16T06:50:12;92174.34;;;18.82;43.63
17521;BME280;8878;-33.370;-70.552;2022-10-16T06:52:41;92170.88;;;18.82;43.93
17521;BME280;8878;-33.370;-70.552;2022-10-16T06:55:11;92160.50;;;18.80;43.54
17521;BME280;8878;-33.370;-70.552;2022-10-16T06:57:42;92163.34;;;18.75;43.67
17521;BME280;8878;-33.370;-70.552;2022-10-16T07:00:12;92168.50;;;18.71;42.98
17521;BME280;8878;-33.370;-70.552;2022-10-16T07:02:41;92171.97;;;18.72;42.57
17521;BME280;8878;-33.370;-70.552;2022-10-16T07:05:13;92167.84;;;18.49;42.50
17521;BME280;8878;-33.370;-70.552;2022-10-16T07:07:42;92171.16;;;18.54;42.08
17521;BME280;8878;-33.370;-70.552;2022-10-16T07:10:11;92169.44;;;18.58;41.98
17521;BME280;8878;-33.370;-70.552;2022-10-16T07:12:40;92166.31;;;18.56;42.26
17521;BME280;8878;-33.370;-70.552;2022-10-16T07:15:11;92168.75;;;18.35;42.75
17521;BME280;8878;-33.370;-70.552;2022-10-16T07:17:41;92167.31;;;18.21;42.45
17521;BME280;8878;-33.370;-70.552;2022-10-16T07:20:12;92163.91;;;18.46;42.01
17521;BME280;8878;-33.370;-70.552;2022-10-16T07:22:41;92166.41;;;18.25;42.19
17521;BME280;8878;-33.370;-70.552;2022-10-16T07:25:11;92162.63;;;18.18;42.00
17521;BME280;8878;-33.370;-70.552;2022-10-16T07:27:40;92162.50;;;18.40;41.88
17521;BME280;8878;-33.370;-70.552;2022-10-16T07:30:10;92172.84;;;18.42;41.94
17521;BME280;8878;-33.370;-70.552;2022-10-16T07:32:39;92174.13;;;18.44;42.07
17521;BME280;8878;-33.370;-70.552;2022-10-16T07:35:11;92171.28;;;18.40;41.64
17521;BME280;8878;-33.370;-70.552;2022-10-16T07:37:44;92182.78;;;18.50;41.47
17521;BME280;8878;-33.370;-70.552;2022-10-16T07:40:14;92180.56;;;18.43;41.42
17521;BME280;8878;-33.370;-70.552;2022-10-16T07:42:43;92179.91;;;18.29;41.30
17521;BME280;8878;-33.370;-70.552;2022-10-16T07:45:12;92178.38;;;18.45;40.82
17521;BME280;8878;-33.370;-70.552;2022-10-16T07:47:42;92179.78;;;18.43;41.13
17521;BME280;8878;-33.370;-70.552;2022-10-16T07:50:13;92186.69;;;18.35;41.25
17521;BME280;8878;-33.370;-70.552;2022-10-16T07:52:42;92188.13;;;18.50;41.23
17521;BME280;8878;-33.370;-70.552;2022-10-16T07:55:12;92181.72;;;18.59;41.61
17521;BME280;8878;-33.370;-70.552;2022-10-16T07:57:41;92190.19;;;18.70;41.27
17521;BME280;8878;-33.370;-70.552;2022-10-16T08:00:11;92189.72;;;18.76;41.93
17521;BME280;8878;-33.370;-70.552;2022-10-16T08:02:41;92184.69;;;18.84;42.81
17521;BME280;8878;-33.370;-70.552;2022-10-16T08:05:12;92187.06;;;18.59;42.07
17521;BME280;8878;-33.370;-70.552;2022-10-16T08:07:41;92187.88;;;18.68;41.80
17521;BME280;8878;-33.370;-70.552;2022-10-16T08:10:16;92185.16;;;18.86;42.24
17521;BME280;8878;-33.370;-70.552;2022-10-16T08:12:47;92187.53;;;18.78;42.86
17521;BME280;8878;-33.370;-70.552;2022-10-16T08:15:16;92183.75;;;18.71;42.83
17521;BME280;8878;-33.370;-70.552;2022-10-16T08:17:55;92184.84;;;18.70;42.29
17521;BME280;8878;-33.370;-70.552;2022-10-16T08:20:26;92195.72;;;18.73;43.22
17521;BME280;8878;-33.370;-70.552;2022-10-16T08:22:56;92189.88;;;18.63;43.70
17521;BME280;8878;-33.370;-70.552;2022-10-16T08:25:25;92193.50;;;18.67;45.16
17521;BME280;8878;-33.370;-70.552;2022-10-16T08:27:55;92184.38;;;18.59;44.39
17521;BME280;8878;-33.370;-70.552;2022-10-16T08:30:24;92195.06;;;18.59;44.46
17521;BME280;8878;-33.370;-70.552;2022-10-16T08:32:53;92190.84;;;18.67;44.53
17521;BME280;8878;-33.370;-70.552;2022-10-16T08:35:24;92202.59;;;18.57;44.72
17521;BME280;8878;-33.370;-70.552;2022-10-16T08:37:54;92195.53;;;18.70;44.57
17521;BME280;8878;-33.370;-70.552;2022-10-16T08:40:25;92206.88;;;18.67;44.38
17521;BME280;8878;-33.370;-70.552;2022-10-16T08:46:02;92212.78;;;18.55;43.28
17521;BME280;8878;-33.370;-70.552;2022-10-16T08:48:39;92211.22;;;18.46;43.60
17521;BME280;8878;-33.370;-70.552;2022-10-16T08:51:24;92209.97;;;18.52;45.15
17521;BME280;8878;-33.370;-70.552;2022-10-16T08:53:55;92204.78;;;18.47;45.71
17521;BME280;8878;-33.370;-70.552;2022-10-16T08:56:26;92219.50;;;18.18;45.98
17521;BME280;8878;-33.370;-70.552;2022-10-16T08:58:57;92213.06;;;18.28;45.24
17521;BME280;8878;-33.370;-70.552;2022-10-16T09:01:35;92209.94;;;18.26;44.72
17521;BME280;8878;-33.370;-70.552;2022-10-16T09:04:46;92213.69;;;18.33;44.13
17521;BME280;8878;-33.370;-70.552;2022-10-16T09:07:28;92222.38;;;18.39;44.34
17521;BME280;8878;-33.370;-70.552;2022-10-16T09:10:12;92215.94;;;18.40;44.93
17521;BME280;8878;-33.370;-70.552;2022-10-16T09:12:52;92221.13;;;18.45;44.65
17521;BME280;8878;-33.370;-70.552;2022-10-16T09:15:31;92221.91;;;18.46;44.92
17521;BME280;8878;-33.370;-70.552;2022-10-16T09:18:06;92217.34;;;18.46;44.13
17521;BME280;8878;-33.370;-70.552;2022-10-16T09:20:49;92218.25;;;18.42;43.07
17521;BME280;8878;-33.370;-70.552;2022-10-16T09:23:26;92214.34;;;18.39;42.97
17521;BME280;8878;-33.370;-70.552;2022-10-16T09:25:56;92218.09;;;18.29;43.17
17521;BME280;8878;-33.370;-70.552;2022-10-16T09:28:27;92219.81;;;18.34;43.48
17521;BME280;8878;-33.370;-70.552;2022-10-16T09:30:57;92223.22;;;18.09;43.00
17521;BME280;8878;-33.370;-70.552;2022-10-16T09:33:29;92220.69;;;18.04;42.93
17521;BME280;8878;-33.370;-70.552;2022-10-16T09:36:04;92224.66;;;18.15;43.21
17521;BME280;8878;-33.370;-70.552;2022-10-16T09:38:36;92222.88;;;18.02;42.94
17521;BME280;8878;-33.370;-70.552;2022-10-16T09:41:15;92223.41;;;18.21;43.07
17521;BME280;8878;-33.370;-70.552;2022-10-16T09:43:52;92230.81;;;18.24;42.99
17521;BME280;8878;-33.370;-70.552;2022-10-16T09:46:26;92219.94;;;18.20;42.71
17521;BME280;8878;-33.370;-70.552;2022-10-16T09:48:57;92220.06;;;18.07;42.80
17521;BME280;8878;-33.370;-70.552;2022-10-16T09:51:29;92222.00;;;17.84;43.39
17521;BME280;8878;-33.370;-70.552;2022-10-16T09:54:02;92221.84;;;17.80;43.83
17521;BME280;8878;-33.370;-70.552;2022-10-16T09:56:32;92223.53;;;18.07;43.56
17521;BME280;8878;-33.370;-70.552;2022-10-16T09:59:11;92223.38;;;18.12;43.81
17521;BME280;8878;-33.370;-70.552;2022-10-16T10:01:42;92224.72;;;17.92;44.24
17521;BME280;8878;-33.370;-70.552;2022-10-16T10:04:15;92222.09;;;18.01;44.21
17521;BME280;8878;-33.370;-70.552;2022-10-16T10:06:46;92221.59;;;17.99;44.55
17521;BME280;8878;-33.370;-70.552;2022-10-16T10:09:22;92226.50;;;18.06;44.04
17521;BME280;8878;-33.370;-70.552;2022-10-16T10:11:53;92225.91;;;18.17;43.73
17521;BME280;8878;-33.370;-70.552;2022-10-16T10:14:26;92215.88;;;18.23;44.08
17521;BME280;8878;-33.370;-70.552;2022-10-16T10:17:11;92215.69;;;18.19;44.10
17521;BME280;8878;-33.370;-70.552;2022-10-16T10:19:44;92219.03;;;18.25;44.99
17521;BME280;8878;-33.370;-70.552;2022-10-16T10:22:28;92212.94;;;18.33;45.09
17521;BME280;8878;-33.370;-70.552;2022-10-16T10:25:25;92217.31;;;18.37;44.47
17521;BME280;8878;-33.370;-70.552;2022-10-16T10:28:20;92221.72;;;18.42;44.16
17521;BME280;8878;-33.370;-70.552;2022-10-16T10:30:57;92210.22;;;18.24;44.04
17521;BME280;8878;-33.370;-70.552;2022-10-16T10:33:38;92219.38;;;18.32;44.30
17521;BME280;8878;-33.370;-70.552;2022-10-16T10:36:20;92224.16;;;18.13;44.50
17521;BME280;8878;-33.370;-70.552;2022-10-16T10:38:54;92225.63;;;18.19;44.19
17521;BME280;8878;-33.370;-70.552;2022-10-16T10:41:53;92230.09;;;18.01;44.52
17521;BME280;8878;-33.370;-70.552;2022-10-16T10:44:34;92230.97;;;18.19;44.36
17521;BME280;8878;-33.370;-70.552;2022-10-16T10:47:15;92239.75;;;18.28;45.12
17521;BME280;8878;-33.370;-70.552;2022-10-16T10:49:56;92233.06;;;18.39;44.81
17521;BME280;8878;-33.370;-70.552;2022-10-16T10:52:41;92240.38;;;18.16;44.47
17521;BME280;8878;-33.370;-70.552;2022-10-16T10:55:19;92246.84;;;18.41;43.97
17521;BME280;8878;-33.370;-70.552;2022-10-16T10:58:10;92244.47;;;18.88;42.55
17521;BME280;8878;-33.370;-70.552;2022-10-16T11:00:51;92258.00;;;19.17;42.56
17521;BME280;8878;-33.370;-70.552;2022-10-16T11:03:37;92251.84;;;19.08;42.52
17521;BME280;8878;-33.370;-70.552;2022-10-16T11:06:14;92262.06;;;18.97;42.42
17521;BME280;8878;-33.370;-70.552;2022-10-16T11:08:48;92264.09;;;19.26;42.48
17521;BME280;8878;-33.370;-70.552;2022-10-16T11:11:23;92252.94;;;19.41;41.87
17521;BME280;8878;-33.370;-70.552;2022-10-16T11:13:59;92256.88;;;19.44;41.47
17521;BME280;8878;-33.370;-70.552;2022-10-16T11:16:33;92261.91;;;19.54;40.11
17521;BME280;8878;-33.370;-70.552;2022-10-16T11:19:11;92267.59;;;19.09;41.04
17521;BME280;8878;-33.370;-70.552;2022-10-16T11:21:46;92275.47;;;19.32;40.98
17521;BME280;8878;-33.370;-70.552;2022-10-16T11:24:20;92285.19;;;19.36;40.68
17521;BME280;8878;-33.370;-70.552;2022-10-16T11:26:54;92287.84;;;19.79;40.32
17521;BME280;8878;-33.370;-70.552;2022-10-16T11:29:30;92278.56;;;19.77;39.97
17521;BME280;8878;-33.370;-70.552;2022-10-16T11:32:05;92272.31;;;20.11;39.61
17521;BME280;8878;-33.370;-70.552;2022-10-16T11:34:38;92280.69;;;20.09;38.88
17521;BME280;8878;-33.370;-70.552;2022-10-16T11:37:12;92289.00;;;19.52;39.87
17521;BME280;8878;-33.370;-70.552;2022-10-16T11:39:44;92292.75;;;19.43;39.78
17521;BME280;8878;-33.370;-70.552;2022-10-16T11:42:18;92284.94;;;20.10;38.90
17521;BME280;8878;-33.370;-70.552;2022-10-16T11:44:57;92286.44;;;19.82;39.33
17521;BME280;8878;-33.370;-70.552;2022-10-16T11:47:33;92290.03;;;19.86;39.05
17521;BME280;8878;-33.370;-70.552;2022-10-16T11:50:06;92278.72;;;20.27;38.80
17521;BME280;8878;-33.370;-70.552;2022-10-16T11:52:47;92286.97;;;20.60;38.32
17521;BME280;8878;-33.370;-70.552;2022-10-16T11:55:22;92283.03;;;20.57;38.86
17521;BME280;8878;-33.370;-70.552;2022-10-16T11:57:57;92288.34;;;20.95;38.44
17521;BME280;8878;-33.370;-70.552;2022-10-16T12:00:35;92290.94;;;21.04;37.90
17521;BME280;8878;-33.370;-70.552;2022-10-16T12:03:14;92289.97;;;21.08;37.83
17521;BME280;8878;-33.370;-70.552;2022-10-16T12:05:58;92284.44;;;21.34;38.08
17521;BME280;8878;-33.370;-70.552;2022-10-16T12:08:30;92289.06;;;21.46;37.66
17521;BME280;8878;-33.370;-70.552;2022-10-16T12:11:08;92290.56;;;21.56;37.23
17521;BME280;8878;-33.370;-70.552;2022-10-16T12:13:40;92289.03;;;21.34;37.40
17521;BME280;8878;-33.370;-70.552;2022-10-16T12:16:29;92289.00;;;21.55;37.50
17521;BME280;8878;-33.370;-70.552;2022-10-16T12:19:12;92283.66;;;21.87;36.73
17521;BME280;8878;-33.370;-70.552;2022-10-16T12:21:42;92280.47;;;21.73;37.04
17521;BME280;8878;-33.370;-70.552;2022-10-16T12:24:33;92280.00;;;21.38;37.85
17521;BME280;8878;-33.370;-70.552;2022-10-16T12:27:04;92289.16;;;21.58;37.35
17521;BME280;8878;-33.370;-70.552;2022-10-16T12:29:37;92289.44;;;21.77;37.89
17521;BME280;8878;-33.370;-70.552;2022-10-16T12:32:24;92285.66;;;21.91;37.39
17521;BME280;8878;-33.370;-70.552;2022-10-16T12:34:56;92286.19;;;22.05;37.21
17521;BME280;8878;-33.370;-70.552;2022-10-16T12:37:28;92292.69;;;21.50;37.24
17521;BME280;8878;-33.370;-70.552;2022-10-16T12:40:04;92287.72;;;21.10;38.03
17521;BME280;8878;-33.370;-70.552;2022-10-16T12:42:40;92285.38;;;22.04;36.82
17521;BME280;8878;-33.370;-70.552;2022-10-16T12:45:26;92288.03;;;21.92;35.82
17521;BME280;8878;-33.370;-70.552;2022-10-16T12:47:59;92290.69;;;21.80;35.66
17521;BME280;8878;-33.370;-70.552;2022-10-16T12:50:34;92276.50;;;21.92;35.21
17521;BME280;8878;-33.370;-70.552;2022-10-16T12:53:16;92285.91;;;22.43;34.69
17521;BME280;8878;-33.370;-70.552;2022-10-16T12:55:54;92281.97;;;22.16;32.49
17521;BME280;8878;-33.370;-70.552;2022-10-16T13:01:34;92274.81;;;22.69;33.25
17521;BME280;8878;-33.370;-70.552;2022-10-16T13:04:29;92268.22;;;22.90;33.70
17521;BME280;8878;-33.370;-70.552;2022-10-16T13:07:14;92270.91;;;22.30;33.97
17521;BME280;8878;-33.370;-70.552;2022-10-16T13:09:56;92279.94;;;22.25;34.30
17521;BME280;8878;-33.370;-70.552;2022-10-16T13:12:45;92270.34;;;22.48;34.02
17521;BME280;8878;-33.370;-70.552;2022-10-16T13:15:35;92263.63;;;22.91;33.51
17521;BME280;8878;-33.370;-70.552;2022-10-16T13:18:15;92271.72;;;22.79;34.27